sensor_id;sensor_type;location;lat;lon;timestamp;P1;durP1;ratioP1;P2;durP2;ratioP2
71368;SDS011;59175;53.214;5.728;2022-12-08T00:02:02;0.10;;;0.00;;
71368;SDS011;59175;53.214;5.728;2022-12-08T00:04:27;0.00;;;0.00;;
71368;SDS011;59175;53.214;5.728;2022-12-08T00:06:53;0.10;;;0.00;;
71368;SDS011;59175;53.214;5.728;2022-12-08T00:09:47;0.10;;;0.00;;
71368;SDS011;59175;53.214;5.728;2022-12-08T00:12:13;0.00;;;0.00;;
71368;SDS011;59175;53.214;5.728;2022-12-08T00:14:45;0.05;;;0.00;;
71368;SDS011;59175;53.214;5.728;2022-12-08T00:17:11;0.10;;;0.00;;
71368;SDS011;59175;53.214;5.728;2022-12-08T00:19:37;0.10;;;0.00;;
71368;SDS011;59175;53.214;5.728;2022-12-08T00:22:06;0.10;;;0.00;;
71368;SDS011;59175;53.214;5.728;2022-12-08T00:24:34;4.68;;;0.10;;
71368;SDS011;59175;53.214;5.728;2022-12-08T00:27:02;1.00;;;0.05;;
71368;SDS011;59175;53.214;5.728;2022-12-08T00:29:28;2.38;;;0.10;;
71368;SDS011;59175;53.214;5.728;2022-12-08T00:31:53;0.10;;;0.00;;
71368;SDS011;59175;53.214;5.728;2022-12-08T00:34:18;0.00;;;0.00;;
71368;SDS011;59175;53.214;5.728;2022-12-08T00:36:44;0.10;;;0.00;;
71368;SDS011;59175;53.214;5.728;2022-12-08T00:39:10;0.10;;;0.00;;
71368;SDS011;59175;53.214;5.728;2022-12-08T00:41:35;0.10;;;0.00;;
71368;SDS011;59175;53.214;5.728;2022-12-08T00:44:19;0.10;;;0.00;;
71368;SDS011;59175;53.214;5.728;2022-12-08T00:46:44;0.00;;;0.00;;
71368;SDS011;59175;53.214;5.728;2022-12-08T00:49:10;2.03;;;0.10;;
71368;SDS011;59175;53.214;5.728;2022-12-08T00:51:35;0.10;;;0.00;;
71368;SDS011;59175;53.214;5.728;2022-12-08T00:54:01;0.23;;;0.00;;
71368;SDS011;59175;53.214;5.728;2022-12-08T00:56:26;0.10;;;0.00;;
71368;SDS011;59175;53.214;5.728;2022-12-08T00:58:51;0.00;;;0.00;;
71368;SDS011;59175;53.214;5.728;2022-12-08T01:01:17;0.00;;;0.00;;
71368;SDS011;59175;53.214;5.728;2022-12-08T01:03:42;0.00;;;0.00;;
71368;SDS011;59175;53.214;5.728;2022-12-08T01:06:08;0.00;;;0.00;;
71368;SDS011;59175;53.214;5.728;2022-12-08T01:08:34;0.00;;;0.00;;
71368;SDS011;59175;53.214;5.728;2022-12-08T01:11:07;0.00;;;0.00;;
71368;SDS011;59175;53.214;5.728;2022-12-08T01:13:32;0.00;;;0.00;;
71368;SDS011;59175;53.214;5.728;2022-12-08T01:15:57;0.00;;;0.00;;
71368;SDS011;59175;53.214;5.728;2022-12-08T01:18:22;2.67;;;0.53;;
71368;SDS011;59175;53.214;5.728;2022-12-08T01:20:48;0.10;;;0.00;;
71368;SDS011;59175;53.214;5.728;2022-12-08T01:23:13;0.00;;;0.00;;
71368;SDS011;59175;53.214;5.728;2022-12-08T01:25:38;0.00;;;0.00;;
71368;SDS011;59175;53.214;5.728;2022-12-08T01:28:03;0.00;;;0.00;;
71368;SDS011;59175;53.214;5.728;2022-12-08T01:30:28;0.00;;;0.00;;
71368;SDS011;59175;53.214;5.728;2022-12-08T01:32:54;0.00;;;0.00;;
71368;SDS011;59175;53.214;5.728;2022-12-08T01:35:19;0.00;;;0.00;;
71368;SDS011;59175;53.214;5.728;2022-12-08T01:37:44;0.93;;;0.50;;
71368;SDS011;59175;53.214;5.728;2022-12-08T01:40:09;0.00;;;0.00;;
71368;SDS011;59175;53.214;5.728;2022-12-08T01:42:34;0.00;;;0.00;;
71368;SDS011;59175;53.214;5.728;2022-12-08T01:45:08;0.00;;;0.00;;
71368;SDS011;59175;53.214;5.728;2022-12-08T01:47:39;0.00;;;0.00;;
71368;SDS011;59175;53.214;5.728;2022-12-08T01:50:07;0.00;;;0.00;;
71368;SDS011;59175;53.214;5.728;2022-12-08T01:52:38;0.00;;;0.00;;
71368;SDS011;59175;53.214;5.728;2022-12-08T01:55:08;0.00;;;0.00;;
71368;SDS011;59175;53.214;5.728;2022-12-08T01:57:44;0.00;;;0.00;;
71368;SDS011;59175;53.214;5.728;2022-12-08T02:00:12;3.20;;;0.47;;
71368;SDS011;59175;53.214;5.728;2022-12-08T02:05:12;0.00;;;0.00;;
71368;SDS011;59175;53.214;5.728;2022-12-08T02:07:38;0.00;;;0.00;;
71368;SDS011;59175;53.214;5.728;2022-12-08T02:10:03;0.00;;;0.00;;
71368;SDS011;59175;53.214;5.728;2022-12-08T02:12:28;0.00;;;0.00;;
71368;SDS011;59175;53.214;5.728;2022-12-08T02:14:54;0.00;;;0.00;;
71368;SDS011;59175;53.214;5.728;2022-12-08T02:17:39;0.63;;;0.00;;
71368;SDS011;59175;53.214;5.728;2022-12-08T02:22:37;0.00;;;0.00;;
71368;SDS011;59175;53.214;5.728;2022-12-08T02:25:10;0.08;;;0.00;;
71368;SDS011;59175;53.214;5.728;2022-12-08T02:30:11;0.00;;;0.00;;
71368;SDS011;59175;53.214;5.728;2022-12-08T02:32:49;0.00;;;0.00;;
71368;SDS011;59175;53.214;5.728;2022-12-08T02:35:33;0.00;;;0.00;;
71368;SDS011;59175;53.214;5.728;2022-12-08T02:38:05;0.00;;;0.00;;
71368;SDS011;59175;53.214;5.728;2022-12-08T02:40:34;0.00;;;0.00;;
71368;SDS011;59175;53.214;5.728;2022-12-08T02:43:06;0.00;;;0.00;;
71368;SDS011;59175;53.214;5.728;2022-12-08T02:45:35;0.00;;;0.00;;
71368;SDS011;59175;53.214;5.728;2022-12-08T02:48:02;0.00;;;0.00;;
71368;SDS011;59175;53.214;5.728;2022-12-08T02:50:27;0.00;;;0.00;;
71368;SDS011;59175;53.214;5.728;2022-12-08T02:52:53;0.00;;;0.00;;
71368;SDS011;59175;53.214;5.728;2022-12-08T02:58:47;0.00;;;0.00;;
71368;SDS011;59175;53.214;5.728;2022-12-08T03:03:20;0.00;;;0.00;;
71368;SDS011;59175;53.214;5.728;2022-12-08T03:05:54;0.00;;;0.00;;
71368;SDS011;59175;53.214;5.728;2022-12-08T03:13:40;0.00;;;0.00;;
71368;SDS011;59175;53.214;5.728;2022-12-08T03:16:08;0.00;;;0.00;;
71368;SDS011;59175;53.214;5.728;2022-12-08T03:18:36;0.00;;;0.00;;
71368;SDS011;59175;53.214;5.728;2022-12-08T03:21:02;0.00;;;0.00;;
71368;SDS011;59175;53.214;5.728;2022-12-08T03:23:27;0.00;;;0.00;;
71368;SDS011;59175;53.214;5.728;2022-12-08T03:26:03;0.00;;;0.00;;
71368;SDS011;59175;53.214;5.728;2022-12-08T03:28:28;0.00;;;0.00;;
71368;SDS011;59175;53.214;5.728;2022-12-08T03:30:54;0.00;;;0.00;;
71368;SDS011;59175;53.214;5.728;2022-12-08T03:33:22;0.00;;;0.00;;
71368;SDS011;59175;53.214;5.728;2022-12-08T03:35:49;0.00;;;0.00;;
71368;SDS011;59175;53.214;5.728;2022-12-08T03:38:15;0.00;;;0.00;;
71368;SDS011;59175;53.214;5.728;2022-12-08T03:40:41;0.00;;;0.00;;
71368;SDS011;59175;53.214;5.728;2022-12-08T03:43:06;0.03;;;0.00;;
71368;SDS011;59175;53.214;5.728;2022-12-08T03:45:32;0.10;;;0.00;;
71368;SDS011;59175;53.214;5.728;2022-12-08T03:47:57;0.10;;;0.00;;
71368;SDS011;59175;53.214;5.728;2022-12-08T03:50:22;0.00;;;0.00;;
71368;SDS011;59175;53.214;5.728;2022-12-08T03:52:47;0.03;;;0.00;;
71368;SDS011;59175;53.214;5.728;2022-12-08T03:55:13;0.33;;;0.23;;
71368;SDS011;59175;53.214;5.728;2022-12-08T03:57:38;0.10;;;0.00;;
71368;SDS011;59175;53.214;5.728;2022-12-08T04:00:04;0.07;;;0.00;;
71368;SDS011;59175;53.214;5.728;2022-12-08T04:02:29;0.00;;;0.00;;
71368;SDS011;59175;53.214;5.728;2022-12-08T04:04:54;0.03;;;0.00;;
71368;SDS011;59175;53.214;5.728;2022-12-08T04:07:19;0.10;;;0.00;;
71368;SDS011;59175;53.214;5.728;2022-12-08T04:09:45;0.00;;;0.00;;
71368;SDS011;59175;53.214;5.728;2022-12-08T04:12:10;0.00;;;0.00;;
71368;SDS011;59175;53.214;5.728;2022-12-08T04:14:35;0.00;;;0.00;;
71368;SDS011;59175;53.214;5.728;2022-12-08T04:17:00;0.10;;;0.00;;
71368;SDS011;59175;53.214;5.728;2022-12-08T04:19:25;0.10;;;0.00;;
71368;SDS011;59175;53.214;5.728;2022-12-08T04:21:51;0.10;;;0.00;;
71368;SDS011;59175;53.214;5.728;2022-12-08T04:24:16;0.10;;;0.00;;
71368;SDS011;59175;53.214;5.728;2022-12-08T04:26:41;0.10;;;0.00;;
71368;SDS011;59175;53.214;5.728;2022-12-08T04:29:06;0.10;;;0.00;;
71368;SDS011;59175;53.214;5.728;2022-12-08T04:31:32;0.00;;;0.00;;
71368;SDS011;59175;53.214;5.728;2022-12-08T04:33:57;0.10;;;0.00;;
71368;SDS011;59175;53.214;5.728;2022-12-08T04:36:22;0.10;;;0.00;;
71368;SDS011;59175;53.214;5.728;2022-12-08T04:38:47;0.10;;;0.00;;
71368;SDS011;59175;53.214;5.728;2022-12-08T04:41:12;0.10;;;0.00;;
71368;SDS011;59175;53.214;5.728;2022-12-08T04:43:38;0.10;;;0.00;;
71368;SDS011;59175;53.214;5.728;2022-12-08T04:46:06;0.10;;;0.00;;
71368;SDS011;59175;53.214;5.728;2022-12-08T04:48:32;0.00;;;0.00;;
71368;SDS011;59175;53.214;5.728;2022-12-08T04:50:57;0.00;;;0.00;;
71368;SDS011;59175;53.214;5.728;2022-12-08T04:53:22;0.10;;;0.00;;
71368;SDS011;59175;53.214;5.728;2022-12-08T04:55:47;0.10;;;0.00;;
71368;SDS011;59175;53.214;5.728;2022-12-08T04:58:14;0.00;;;0.00;;
71368;SDS011;59175;53.214;5.728;2022-12-08T05:00:40;0.10;;;0.00;;
71368;SDS011;59175;53.214;5.728;2022-12-08T05:03:05;0.03;;;0.00;;
71368;SDS011;59175;53.214;5.728;2022-12-08T05:05:31;0.10;;;0.00;;
71368;SDS011;59175;53.214;5.728;2022-12-08T05:07:56;0.10;;;0.00;;
71368;SDS011;59175;53.214;5.728;2022-12-08T05:10:21;0.10;;;0.00;;
71368;SDS011;59175;53.214;5.728;2022-12-08T05:12:46;0.00;;;0.00;;
71368;SDS011;59175;53.214;5.728;2022-12-08T05:15:11;0.10;;;0.00;;
71368;SDS011;59175;53.214;5.728;2022-12-08T05:17:36;0.10;;;0.00;;
71368;SDS011;59175;53.214;5.728;2022-12-08T05:20:02;0.00;;;0.00;;
71368;SDS011;59175;53.214;5.728;2022-12-08T05:22:27;0.10;;;0.00;;
71368;SDS011;59175;53.214;5.728;2022-12-08T05:24:52;0.10;;;0.00;;
71368;SDS011;59175;53.214;5.728;2022-12-08T05:27:17;0.10;;;0.00;;
71368;SDS011;59175;53.214;5.728;2022-12-08T05:29:43;0.10;;;0.00;;
71368;SDS011;59175;53.214;5.728;2022-12-08T05:32:08;0.07;;;0.00;;
71368;SDS011;59175;53.214;5.728;2022-12-08T05:34:33;0.10;;;0.00;;
71368;SDS011;59175;53.214;5.728;2022-12-08T05:36:58;0.00;;;0.00;;
71368;SDS011;59175;53.214;5.728;2022-12-08T05:39:23;0.10;;;0.00;;
71368;SDS011;59175;53.214;5.728;2022-12-08T05:41:49;0.10;;;0.00;;
71368;SDS011;59175;53.214;5.728;2022-12-08T05:44:14;0.10;;;0.00;;
71368;SDS011;59175;53.214;5.728;2022-12-08T05:46:39;0.00;;;0.00;;
71368;SDS011;59175;53.214;5.728;2022-12-08T05:49:05;0.10;;;0.00;;
71368;SDS011;59175;53.214;5.728;2022-12-08T05:51:30;0.10;;;0.00;;
71368;SDS011;59175;53.214;5.728;2022-12-08T05:53:55;0.10;;;0.00;;
71368;SDS011;59175;53.214;5.728;2022-12-08T05:56:21;0.00;;;0.00;;
71368;SDS011;59175;53.214;5.728;2022-12-08T05:58:46;0.10;;;0.00;;
71368;SDS011;59175;53.214;5.728;2022-12-08T06:03:46;0.00;;;0.00;;
71368;SDS011;59175;53.214;5.728;2022-12-08T06:06:11;0.00;;;0.00;;
71368;SDS011;59175;53.214;5.728;2022-12-08T06:08:36;0.00;;;0.00;;
71368;SDS011;59175;53.214;5.728;2022-12-08T06:11:02;0.10;;;0.00;;
71368;SDS011;59175;53.214;5.728;2022-12-08T06:13:27;0.10;;;0.00;;
71368;SDS011;59175;53.214;5.728;2022-12-08T06:15:52;0.00;;;0.00;;
71368;SDS011;59175;53.214;5.728;2022-12-08T06:18:17;0.10;;;0.00;;
71368;SDS011;59175;53.214;5.728;2022-12-08T06:20:42;0.10;;;0.00;;
71368;SDS011;59175;53.214;5.728;2022-12-08T06:23:07;0.00;;;0.00;;
71368;SDS011;59175;53.214;5.728;2022-12-08T06:25:33;0.00;;;0.00;;
71368;SDS011;59175;53.214;5.728;2022-12-08T06:27:58;0.10;;;0.00;;
71368;SDS011;59175;53.214;5.728;2022-12-08T06:30:23;0.10;;;0.00;;
71368;SDS011;59175;53.214;5.728;2022-12-08T06:32:48;0.10;;;0.00;;
71368;SDS011;59175;53.214;5.728;2022-12-08T06:35:13;0.10;;;0.00;;
71368;SDS011;59175;53.214;5.728;2022-12-08T06:37:39;0.10;;;0.00;;
71368;SDS011;59175;53.214;5.728;2022-12-08T06:40:04;0.00;;;0.00;;
71368;SDS011;59175;53.214;5.728;2022-12-08T06:42:29;0.00;;;0.00;;
71368;SDS011;59175;53.214;5.728;2022-12-08T06:45:14;0.10;;;0.00;;
71368;SDS011;59175;53.214;5.728;2022-12-08T06:47:39;0.10;;;0.00;;
71368;SDS011;59175;53.214;5.728;2022-12-08T06:50:08;0.00;;;0.00;;
71368;SDS011;59175;53.214;5.728;2022-12-08T06:52:33;0.00;;;0.00;;
71368;SDS011;59175;53.214;5.728;2022-12-08T06:54:59;0.00;;;0.00;;
71368;SDS011;59175;53.214;5.728;2022-12-08T06:57:24;0.00;;;0.00;;
71368;SDS011;59175;53.214;5.728;2022-12-08T06:59:49;0.00;;;0.00;;
71368;SDS011;59175;53.214;5.728;2022-12-08T07:02:14;0.00;;;0.00;;
71368;SDS011;59175;53.214;5.728;2022-12-08T07:04:41;0.00;;;0.00;;
71368;SDS011;59175;53.214;5.728;2022-12-08T07:07:06;0.00;;;0.00;;
71368;SDS011;59175;53.214;5.728;2022-12-08T07:09:31;5.27;;;4.30;;
71368;SDS011;59175;53.214;5.728;2022-12-08T07:11:56;0.47;;;0.47;;
71368;SDS011;59175;53.214;5.728;2022-12-08T07:14:21;0.00;;;0.00;;
71368;SDS011;59175;53.214;5.728;2022-12-08T07:16:49;0.00;;;0.00;;
71368;SDS011;59175;53.214;5.728;2022-12-08T07:19:14;0.00;;;0.00;;
71368;SDS011;59175;53.214;5.728;2022-12-08T07:21:39;0.00;;;0.00;;
71368;SDS011;59175;53.214;5.728;2022-12-08T07:24:04;0.00;;;0.00;;
71368;SDS011;59175;53.214;5.728;2022-12-08T07:26:30;0.00;;;0.00;;
71368;SDS011;59175;53.214;5.728;2022-12-08T07:28:55;0.00;;;0.00;;
71368;SDS011;59175;53.214;5.728;2022-12-08T07:31:21;0.30;;;0.20;;
71368;SDS011;59175;53.214;5.728;2022-12-08T07:33:47;0.00;;;0.00;;
71368;SDS011;59175;53.214;5.728;2022-12-08T07:36:12;0.03;;;0.00;;
71368;SDS011;59175;53.214;5.728;2022-12-08T07:38:37;0.10;;;0.00;;
71368;SDS011;59175;53.214;5.728;2022-12-08T07:41:03;0.00;;;0.00;;
71368;SDS011;59175;53.214;5.728;2022-12-08T07:43:28;0.10;;;0.00;;
71368;SDS011;59175;53.214;5.728;2022-12-08T07:45:53;0.00;;;0.00;;
71368;SDS011;59175;53.214;5.728;2022-12-08T07:48:18;0.60;;;0.60;;
71368;SDS011;59175;53.214;5.728;2022-12-08T07:50:44;0.00;;;0.00;;
71368;SDS011;59175;53.214;5.728;2022-12-08T07:53:09;0.00;;;0.00;;
71368;SDS011;59175;53.214;5.728;2022-12-08T07:55:41;0.00;;;0.00;;
71368;SDS011;59175;53.214;5.728;2022-12-08T07:58:07;3.50;;;2.65;;
71368;SDS011;59175;53.214;5.728;2022-12-08T08:00:34;0.10;;;0.07;;
71368;SDS011;59175;53.214;5.728;2022-12-08T08:02:59;3.65;;;3.03;;
71368;SDS011;59175;53.214;5.728;2022-12-08T08:05:25;2.20;;;2.10;;
71368;SDS011;59175;53.214;5.728;2022-12-08T08:07:50;0.00;;;0.00;;
71368;SDS011;59175;53.214;5.728;2022-12-08T08:10:15;2.17;;;2.07;;
71368;SDS011;59175;53.214;5.728;2022-12-08T08:12:40;0.27;;;0.10;;
71368;SDS011;59175;53.214;5.728;2022-12-08T08:15:06;0.00;;;0.00;;
71368;SDS011;59175;53.214;5.728;2022-12-08T08:17:32;0.00;;;0.00;;
71368;SDS011;59175;53.214;5.728;2022-12-08T08:19:57;0.30;;;0.30;;
71368;SDS011;59175;53.214;5.728;2022-12-08T08:22:23;0.00;;;0.00;;
71368;SDS011;59175;53.214;5.728;2022-12-08T08:24:48;0.00;;;0.00;;
71368;SDS011;59175;53.214;5.728;2022-12-08T08:27:13;0.00;;;0.00;;
71368;SDS011;59175;53.214;5.728;2022-12-08T08:29:39;0.00;;;0.00;;
71368;SDS011;59175;53.214;5.728;2022-12-08T08:32:04;0.00;;;0.00;;
71368;SDS011;59175;53.214;5.728;2022-12-08T08:34:29;0.00;;;0.00;;
71368;SDS011;59175;53.214;5.728;2022-12-08T08:36:55;0.00;;;0.00;;
71368;SDS011;59175;53.214;5.728;2022-12-08T08:39:20;0.00;;;0.00;;
71368;SDS011;59175;53.214;5.728;2022-12-08T08:41:45;0.00;;;0.00;;
71368;SDS011;59175;53.214;5.728;2022-12-08T08:44:11;0.00;;;0.00;;
71368;SDS011;59175;53.214;5.728;2022-12-08T08:46:36;0.00;;;0.00;;
71368;SDS011;59175;53.214;5.728;2022-12-08T08:49:02;0.00;;;0.00;;
71368;SDS011;59175;53.214;5.728;2022-12-08T08:51:27;0.00;;;0.00;;
71368;SDS011;59175;53.214;5.728;2022-12-08T08:53:52;0.00;;;0.00;;
71368;SDS011;59175;53.214;5.728;2022-12-08T08:56:18;0.10;;;0.00;;
71368;SDS011;59175;53.214;5.728;2022-12-08T08:58:43;0.00;;;0.00;;
71368;SDS011;59175;53.214;5.728;2022-12-08T09:01:19;0.00;;;0.00;;
71368;SDS011;59175;53.214;5.728;2022-12-08T09:03:45;0.10;;;0.00;;
71368;SDS011;59175;53.214;5.728;2022-12-08T09:06:11;0.00;;;0.00;;
71368;SDS011;59175;53.214;5.728;2022-12-08T09:08:36;0.00;;;0.00;;
71368;SDS011;59175;53.214;5.728;2022-12-08T09:11:01;0.00;;;0.00;;
71368;SDS011;59175;53.214;5.728;2022-12-08T09:13:26;0.10;;;0.00;;
71368;SDS011;59175;53.214;5.728;2022-12-08T09:15:52;0.00;;;0.00;;
71368;SDS011;59175;53.214;5.728;2022-12-08T09:18:17;0.00;;;0.00;;
71368;SDS011;59175;53.214;5.728;2022-12-08T09:20:42;0.00;;;0.00;;
71368;SDS011;59175;53.214;5.728;2022-12-08T09:23:07;0.10;;;0.00;;
71368;SDS011;59175;53.214;5.728;2022-12-08T09:25:33;0.00;;;0.00;;
71368;SDS011;59175;53.214;5.728;2022-12-08T09:27:58;0.53;;;0.43;;
71368;SDS011;59175;53.214;5.728;2022-12-08T09:30:23;0.00;;;0.00;;
71368;SDS011;59175;53.214;5.728;2022-12-08T09:32:48;0.20;;;0.10;;
71368;SDS011;59175;53.214;5.728;2022-12-08T09:35:13;0.00;;;0.00;;
71368;SDS011;59175;53.214;5.728;2022-12-08T09:37:39;0.00;;;0.00;;
71368;SDS011;59175;53.214;5.728;2022-12-08T09:40:04;2.73;;;2.53;;
71368;SDS011;59175;53.214;5.728;2022-12-08T09:45:16;0.00;;;0.00;;
71368;SDS011;59175;53.214;5.728;2022-12-08T09:58:02;0.00;;;0.00;;
71368;SDS011;59175;53.214;5.728;2022-12-08T10:00:30;0.00;;;0.00;;
71368;SDS011;59175;53.214;5.728;2022-12-08T10:02:55;0.00;;;0.00;;
71368;SDS011;59175;53.214;5.728;2022-12-08T10:05:21;0.03;;;0.00;;
71368;SDS011;59175;53.214;5.728;2022-12-08T10:08:09;0.00;;;0.00;;
71368;SDS011;59175;53.214;5.728;2022-12-08T10:10:41;0.08;;;0.00;;
71368;SDS011;59175;53.214;5.728;2022-12-08T10:13:17;0.00;;;0.00;;
71368;SDS011;59175;53.214;5.728;2022-12-08T10:15:46;0.00;;;0.00;;
71368;SDS011;59175;53.214;5.728;2022-12-08T10:18:28;0.05;;;0.00;;
71368;SDS011;59175;53.214;5.728;2022-12-08T10:20:56;0.20;;;0.07;;
71368;SDS011;59175;53.214;5.728;2022-12-08T10:23:29;1.13;;;0.43;;
71368;SDS011;59175;53.214;5.728;2022-12-08T10:28:23;1.50;;;0.88;;
71368;SDS011;59175;53.214;5.728;2022-12-08T10:30:49;0.23;;;0.10;;
71368;SDS011;59175;53.214;5.728;2022-12-08T10:33:15;0.70;;;0.30;;
71368;SDS011;59175;53.214;5.728;2022-12-08T10:35:43;0.30;;;0.00;;
71368;SDS011;59175;53.214;5.728;2022-12-08T10:38:15;0.13;;;0.03;;
71368;SDS011;59175;53.214;5.728;2022-12-08T10:40:40;0.20;;;0.10;;
71368;SDS011;59175;53.214;5.728;2022-12-08T10:43:11;0.68;;;0.22;;
71368;SDS011;59175;53.214;5.728;2022-12-08T10:45:38;1.00;;;0.10;;
71368;SDS011;59175;53.214;5.728;2022-12-08T10:50:41;0.95;;;0.45;;
71368;SDS011;59175;53.214;5.728;2022-12-08T10:55:38;0.07;;;0.00;;
71368;SDS011;59175;53.214;5.728;2022-12-08T10:58:03;1.17;;;0.40;;
71368;SDS011;59175;53.214;5.728;2022-12-08T11:00:28;0.10;;;0.00;;
71368;SDS011;59175;53.214;5.728;2022-12-08T11:05:19;0.00;;;0.00;;
71368;SDS011;59175;53.214;5.728;2022-12-08T11:07:48;0.00;;;0.00;;
71368;SDS011;59175;53.214;5.728;2022-12-08T11:10:18;0.00;;;0.00;;
71368;SDS011;59175;53.214;5.728;2022-12-08T11:12:44;0.00;;;0.00;;
71368;SDS011;59175;53.214;5.728;2022-12-08T11:15:13;0.00;;;0.00;;
71368;SDS011;59175;53.214;5.728;2022-12-08T11:17:39;0.00;;;0.00;;
71368;SDS011;59175;53.214;5.728;2022-12-08T11:27:27;0.00;;;0.00;;
71368;SDS011;59175;53.214;5.728;2022-12-08T11:29:52;0.00;;;0.00;;
71368;SDS011;59175;53.214;5.728;2022-12-08T11:32:17;0.07;;;0.00;;
71368;SDS011;59175;53.214;5.728;2022-12-08T11:34:44;0.00;;;0.00;;
71368;SDS011;59175;53.214;5.728;2022-12-08T11:37:18;3.03;;;0.70;;
71368;SDS011;59175;53.214;5.728;2022-12-08T11:39:47;0.00;;;0.00;;
71368;SDS011;59175;53.214;5.728;2022-12-08T11:42:13;0.00;;;0.00;;
71368;SDS011;59175;53.214;5.728;2022-12-08T11:47:13;0.00;;;0.00;;
71368;SDS011;59175;53.214;5.728;2022-12-08T11:49:40;0.00;;;0.00;;
71368;SDS011;59175;53.214;5.728;2022-12-08T11:54:54;0.00;;;0.00;;
71368;SDS011;59175;53.214;5.728;2022-12-08T11:57:21;0.00;;;0.00;;
71368;SDS011;59175;53.214;5.728;2022-12-08T11:59:49;0.08;;;0.00;;
71368;SDS011;59175;53.214;5.728;2022-12-08T12:02:16;0.00;;;0.00;;
71368;SDS011;59175;53.214;5.728;2022-12-08T12:04:55;0.00;;;0.00;;
71368;SDS011;59175;53.214;5.728;2022-12-08T12:19:49;0.00;;;0.00;;
71368;SDS011;59175;53.214;5.728;2022-12-08T12:22:15;0.00;;;0.00;;
71368;SDS011;59175;53.214;5.728;2022-12-08T12:24:43;0.00;;;0.00;;
71368;SDS011;59175;53.214;5.728;2022-12-08T12:29:37;0.00;;;0.00;;
71368;SDS011;59175;53.214;5.728;2022-12-08T12:32:03;0.00;;;0.00;;
71368;SDS011;59175;53.214;5.728;2022-12-08T12:37:17;0.00;;;0.00;;
71368;SDS011;59175;53.214;5.728;2022-12-08T12:39:57;0.00;;;0.00;;
71368;SDS011;59175;53.214;5.728;2022-12-08T12:50:11;0.00;;;0.00;;
71368;SDS011;59175;53.214;5.728;2022-12-08T12:52:37;0.00;;;0.00;;
71368;SDS011;59175;53.214;5.728;2022-12-08T12:57:49;0.00;;;0.00;;
71368;SDS011;59175;53.214;5.728;2022-12-08T13:00:18;0.00;;;0.00;;
71368;SDS011;59175;53.214;5.728;2022-12-08T13:05:25;1.30;;;0.50;;
71368;SDS011;59175;53.214;5.728;2022-12-08T13:08:01;0.10;;;0.00;;
71368;SDS011;59175;53.214;5.728;2022-12-08T13:13:05;0.10;;;0.00;;
71368;SDS011;59175;53.214;5.728;2022-12-08T13:15:32;0.10;;;0.00;;
71368;SDS011;59175;53.214;5.728;2022-12-08T13:17:58;0.00;;;0.00;;
71368;SDS011;59175;53.214;5.728;2022-12-08T13:20:24;0.08;;;0.00;;
71368;SDS011;59175;53.214;5.728;2022-12-08T13:28:07;1.13;;;0.70;;
71368;SDS011;59175;53.214;5.728;2022-12-08T13:35:55;0.50;;;0.25;;
71368;SDS011;59175;53.214;5.728;2022-12-08T13:38:21;0.55;;;0.28;;
71368;SDS011;59175;53.214;5.728;2022-12-08T13:40:50;0.73;;;0.33;;
71368;SDS011;59175;53.214;5.728;2022-12-08T13:43:30;0.22;;;0.10;;
71368;SDS011;59175;53.214;5.728;2022-12-08T13:45:57;0.65;;;0.30;;
71368;SDS011;59175;53.214;5.728;2022-12-08T13:48:27;0.10;;;0.00;;
71368;SDS011;59175;53.214;5.728;2022-12-08T13:50:55;1.40;;;0.35;;
71368;SDS011;59175;53.214;5.728;2022-12-08T13:53:23;0.47;;;0.20;;
71368;SDS011;59175;53.214;5.728;2022-12-08T13:55:51;1.15;;;0.70;;
71368;SDS011;59175;53.214;5.728;2022-12-08T13:58:23;0.95;;;0.80;;
71368;SDS011;59175;53.214;5.728;2022-12-08T14:00:53;0.10;;;0.00;;
71368;SDS011;59175;53.214;5.728;2022-12-08T14:03:18;0.20;;;0.00;;
71368;SDS011;59175;53.214;5.728;2022-12-08T14:05:44;0.10;;;0.00;;
71368;SDS011;59175;53.214;5.728;2022-12-08T14:08:16;0.10;;;0.00;;
71368;SDS011;59175;53.214;5.728;2022-12-08T14:10:43;0.10;;;0.00;;
71368;SDS011;59175;53.214;5.728;2022-12-08T14:13:10;0.00;;;0.00;;
71368;SDS011;59175;53.214;5.728;2022-12-08T14:15:36;0.15;;;0.05;;
71368;SDS011;59175;53.214;5.728;2022-12-08T14:18:02;0.00;;;0.00;;
71368;SDS011;59175;53.214;5.728;2022-12-08T14:20:28;0.00;;;0.00;;
71368;SDS011;59175;53.214;5.728;2022-12-08T14:22:54;1.10;;;0.30;;
71368;SDS011;59175;53.214;5.728;2022-12-08T14:25:20;0.10;;;0.00;;
71368;SDS011;59175;53.214;5.728;2022-12-08T14:27:46;0.35;;;0.20;;
71368;SDS011;59175;53.214;5.728;2022-12-08T14:32:58;0.40;;;0.30;;
71368;SDS011;59175;53.214;5.728;2022-12-08T14:35:31;0.10;;;0.00;;
71368;SDS011;59175;53.214;5.728;2022-12-08T14:37:57;0.10;;;0.00;;
71368;SDS011;59175;53.214;5.728;2022-12-08T14:40:23;0.10;;;0.00;;
71368;SDS011;59175;53.214;5.728;2022-12-08T14:42:53;0.05;;;0.00;;
71368;SDS011;59175;53.214;5.728;2022-12-08T14:45:28;0.57;;;0.55;;
71368;SDS011;59175;53.214;5.728;2022-12-08T14:47:53;0.77;;;0.13;;
71368;SDS011;59175;53.214;5.728;2022-12-08T14:53:04;0.57;;;0.10;;
71368;SDS011;59175;53.214;5.728;2022-12-08T14:55:34;1.13;;;0.33;;
71368;SDS011;59175;53.214;5.728;2022-12-08T14:58:00;0.00;;;0.00;;
71368;SDS011;59175;53.214;5.728;2022-12-08T15:00:26;0.07;;;0.00;;
71368;SDS011;59175;53.214;5.728;2022-12-08T15:02:52;0.43;;;0.20;;
71368;SDS011;59175;53.214;5.728;2022-12-08T15:05:17;1.83;;;0.70;;
71368;SDS011;59175;53.214;5.728;2022-12-08T15:07:45;0.55;;;0.20;;
71368;SDS011;59175;53.214;5.728;2022-12-08T15:12:39;0.60;;;0.20;;
71368;SDS011;59175;53.214;5.728;2022-12-08T15:17:43;0.30;;;0.07;;
71368;SDS011;59175;53.214;5.728;2022-12-08T15:20:25;0.15;;;0.00;;
71368;SDS011;59175;53.214;5.728;2022-12-08T15:22:52;0.63;;;0.38;;
71368;SDS011;59175;53.214;5.728;2022-12-08T15:25:17;0.60;;;0.13;;
71368;SDS011;59175;53.214;5.728;2022-12-08T15:27:43;0.30;;;0.10;;
71368;SDS011;59175;53.214;5.728;2022-12-08T15:30:11;0.30;;;0.10;;
71368;SDS011;59175;53.214;5.728;2022-12-08T15:32:37;0.35;;;0.10;;
71368;SDS011;59175;53.214;5.728;2022-12-08T15:35:02;0.00;;;0.00;;
71368;SDS011;59175;53.214;5.728;2022-12-08T15:37:27;0.67;;;0.10;;
71368;SDS011;59175;53.214;5.728;2022-12-08T15:39:53;0.50;;;0.10;;
71368;SDS011;59175;53.214;5.728;2022-12-08T15:42:18;0.23;;;0.03;;
71368;SDS011;59175;53.214;5.728;2022-12-08T15:44:43;10.83;;;3.87;;
71368;SDS011;59175;53.214;5.728;2022-12-08T15:47:18;4.30;;;1.60;;
71368;SDS011;59175;53.214;5.728;2022-12-08T15:49:44;0.00;;;0.00;;
71368;SDS011;59175;53.214;5.728;2022-12-08T15:52:13;2.20;;;1.67;;
71368;SDS011;59175;53.214;5.728;2022-12-08T15:54:39;4.93;;;0.82;;
71368;SDS011;59175;53.214;5.728;2022-12-08T15:57:04;1.33;;;0.57;;
71368;SDS011;59175;53.214;5.728;2022-12-08T15:59:29;25.73;;;5.67;;
71368;SDS011;59175;53.214;5.728;2022-12-08T16:01:54;41.30;;;17.80;;
71368;SDS011;59175;53.214;5.728;2022-12-08T16:04:20;38.03;;;16.87;;
71368;SDS011;59175;53.214;5.728;2022-12-08T16:06:46;22.85;;;9.23;;
71368;SDS011;59175;53.214;5.728;2022-12-08T16:11:41;8.63;;;2.50;;
71368;SDS011;59175;53.214;5.728;2022-12-08T16:14:25;5.55;;;2.05;;
71368;SDS011;59175;53.214;5.728;2022-12-08T16:16:50;5.00;;;2.80;;
71368;SDS011;59175;53.214;5.728;2022-12-08T16:19:16;1.73;;;0.83;;
71368;SDS011;59175;53.214;5.728;2022-12-08T16:21:41;0.90;;;0.27;;
71368;SDS011;59175;53.214;5.728;2022-12-08T16:24:06;1.07;;;0.30;;
71368;SDS011;59175;53.214;5.728;2022-12-08T16:26:31;0.20;;;0.07;;
71368;SDS011;59175;53.214;5.728;2022-12-08T16:28:56;1.20;;;0.20;;
71368;SDS011;59175;53.214;5.728;2022-12-08T16:31:22;1.07;;;0.60;;
71368;SDS011;59175;53.214;5.728;2022-12-08T16:33:47;0.47;;;0.10;;
71368;SDS011;59175;53.214;5.728;2022-12-08T16:36:12;0.50;;;0.20;;
71368;SDS011;59175;53.214;5.728;2022-12-08T16:38:37;0.30;;;0.20;;
71368;SDS011;59175;53.214;5.728;2022-12-08T16:41:02;1.90;;;0.27;;